createdAt,value
2023-12-09T00:07:39.354Z,12.97
2023-12-09T00:10:06.256Z,14.70
2023-12-09T00:12:32.876Z,13.70
2023-12-09T00:14:59.498Z,15.83
2023-12-09T00:17:26.224Z,14.17
2023-12-09T00:19:52.925Z,13.17
2023-12-09T00:22:20.055Z,15.03
2023-12-09T00:24:46.582Z,14.63
2023-12-09T00:27:13.198Z,14.10
2023-12-09T00:29:39.809Z,15.70
2023-12-09T00:32:06.506Z,17.63
2023-12-09T00:34:33.177Z,18.23
2023-12-09T00:36:59.747Z,18.23
2023-12-09T00:39:26.342Z,17.07
2023-12-09T00:41:53.212Z,14.60
2023-12-09T00:44:22.126Z,16.37
2023-12-09T00:46:49.079Z,14.23
2023-12-09T00:49:15.722Z,13.10
2023-12-09T00:51:42.298Z,13.47
2023-12-09T00:54:08.873Z,13.87
2023-12-09T00:56:35.838Z,13.30
2023-12-09T00:59:03.982Z,14.17
2023-12-09T01:01:30.765Z,12.97
2023-12-09T01:03:57.572Z,12.63
2023-12-09T01:06:24.199Z,12.07
2023-12-09T01:08:50.799Z,12.40
2023-12-09T01:11:17.361Z,13.53
2023-12-09T01:13:44.319Z,14.07
2023-12-09T01:16:10.880Z,14.07
2023-12-09T01:18:37.565Z,15.97
2023-12-09T01:21:04.556Z,15.67
2023-12-09T01:23:31.133Z,15.40
2023-12-09T01:25:57.733Z,16.13
2023-12-09T01:28:24.235Z,15.87
2023-12-09T01:30:50.803Z,15.03
2023-12-09T01:33:17.420Z,15.37
2023-12-09T01:35:44.223Z,17.23
2023-12-09T01:38:10.825Z,16.30
2023-12-09T01:43:51.533Z,15.23
2023-12-09T01:46:19.884Z,15.07
2023-12-09T01:48:46.796Z,17.10
2023-12-09T01:51:16.937Z,16.83
2023-12-09T01:53:43.903Z,16.37
2023-12-09T01:56:13.376Z,18.33
2023-12-09T01:58:40.886Z,17.83
2023-12-09T02:01:07.654Z,18.20
2023-12-09T02:03:35.215Z,17.80
2023-12-09T02:06:01.927Z,17.03
2023-12-09T02:08:28.535Z,24.27
2023-12-09T02:11:01.876Z,18.30
2023-12-09T02:13:40.122Z,18.87
2023-12-09T02:16:21.509Z,19.30
2023-12-09T02:18:49.554Z,18.80
2023-12-09T02:21:16.267Z,20.77
2023-12-09T02:23:42.882Z,25.40
2023-12-09T02:26:18.707Z,18.87
2023-12-09T02:28:57.836Z,23.60
2023-12-09T02:31:28.972Z,19.97
2023-12-09T02:33:57.527Z,18.27
2023-12-09T02:36:26.890Z,20.73
2023-12-09T02:38:55.761Z,14.23
2023-12-09T02:41:23.889Z,19.10
2023-12-09T02:43:50.640Z,13.07
2023-12-09T02:46:17.203Z,13.57
2023-12-09T02:48:43.938Z,14.90
2023-12-09T02:51:10.704Z,13.93
2023-12-09T02:53:37.330Z,13.27
2023-12-09T02:56:04.252Z,16.67
2023-12-09T02:58:30.874Z,10.77
2023-12-09T03:00:57.446Z,11.27
2023-12-09T03:03:24.070Z,10.13
2023-12-09T03:05:50.905Z,9.53
2023-12-09T03:08:17.530Z,8.10
2023-12-09T03:10:44.343Z,10.37
2023-12-09T03:13:11.077Z,9.73
2023-12-09T03:15:37.776Z,9.53
2023-12-09T03:21:53.133Z,9.27
2023-12-09T03:24:19.752Z,8.60
2023-12-09T03:26:50.766Z,9.57
2023-12-09T03:29:17.891Z,8.03
2023-12-09T03:31:44.439Z,9.43
2023-12-09T03:34:11.179Z,8.10
2023-12-09T03:36:37.823Z,7.67
2023-12-09T03:39:04.952Z,8.00
2023-12-09T03:41:31.514Z,7.43
2023-12-09T03:43:58.072Z,7.10
2023-12-09T03:46:24.794Z,7.93
2023-12-09T03:48:51.629Z,7.50
2023-12-09T03:51:18.364Z,8.53
2023-12-09T03:53:45.397Z,7.07
2023-12-09T03:56:14.768Z,6.53
2023-12-09T03:58:41.422Z,7.17
2023-12-09T04:01:08.053Z,7.03
2023-12-09T04:03:34.752Z,6.97
2023-12-09T04:06:02.478Z,7.47
2023-12-09T04:08:29.090Z,6.63
2023-12-09T04:10:56.446Z,8.07
2023-12-09T04:13:23.181Z,7.80
2023-12-09T04:15:49.734Z,7.87
2023-12-09T04:18:16.572Z,7.63
2023-12-09T04:20:43.280Z,8.20
2023-12-09T04:23:09.932Z,8.87
2023-12-09T04:25:36.787Z,7.40
2023-12-09T04:28:03.453Z,9.13
2023-12-09T04:30:30.032Z,8.87
2023-12-09T04:32:57.173Z,8.97
2023-12-09T04:35:23.805Z,8.53
2023-12-09T04:37:50.411Z,7.57
2023-12-09T04:40:18.839Z,7.80
2023-12-09T04:42:45.887Z,10.33
2023-12-09T04:45:12.680Z,8.13
2023-12-09T04:47:39.697Z,8.77
2023-12-09T04:50:09.975Z,8.73
2023-12-09T04:52:39.618Z,9.40
2023-12-09T04:55:40.234Z,7.20
2023-12-09T04:58:16.970Z,5.80
2023-12-09T05:00:43.622Z,7.07
2023-12-09T05:03:10.430Z,6.87
2023-12-09T05:05:37.190Z,6.40
2023-12-09T05:08:04.528Z,8.03
2023-12-09T05:10:31.285Z,6.03
2023-12-09T05:12:58.124Z,4.97
2023-12-09T05:15:24.709Z,6.80
2023-12-09T05:17:51.389Z,6.43
2023-12-09T05:20:18.058Z,6.50
2023-12-09T05:22:46.151Z,6.20
2023-12-09T05:25:13.106Z,7.03
2023-12-09T05:27:39.731Z,6.43
2023-12-09T05:30:07.041Z,5.97
2023-12-09T05:32:33.629Z,6.23
2023-12-09T05:35:00.201Z,5.80
2023-12-09T05:37:26.754Z,6.40
2023-12-09T05:39:53.517Z,6.13
2023-12-09T05:42:20.065Z,6.27
2023-12-09T05:44:46.696Z,7.87
2023-12-09T05:47:13.265Z,7.03
2023-12-09T05:49:39.960Z,7.03
2023-12-09T05:52:06.897Z,7.23
2023-12-09T05:54:33.654Z,8.13
2023-12-09T05:57:00.340Z,7.93
2023-12-09T05:59:27.031Z,7.30
2023-12-09T06:01:55.785Z,8.87
2023-12-09T06:04:22.570Z,8.00
2023-12-09T06:06:49.391Z,7.80
2023-12-09T06:09:17.749Z,7.63
2023-12-09T06:11:44.289Z,8.90
2023-12-09T06:14:10.791Z,6.77
2023-12-09T06:16:37.383Z,7.00
2023-12-09T06:19:04.240Z,7.87
2023-12-09T06:21:31.152Z,7.67
2023-12-09T06:23:58.103Z,7.70
2023-12-09T06:26:24.685Z,7.17
2023-12-09T06:28:51.249Z,7.57
2023-12-09T06:31:17.840Z,7.33
2023-12-09T06:33:44.525Z,7.47
2023-12-09T06:36:54.017Z,6.80
2023-12-09T06:40:08.309Z,7.80
2023-12-09T06:42:37.096Z,6.70
2023-12-09T06:45:04.228Z,7.07
2023-12-09T06:47:30.875Z,6.80
2023-12-09T06:49:57.499Z,6.50
2023-12-09T06:52:24.320Z,6.50
2023-12-09T06:54:51.005Z,7.20
2023-12-09T06:57:17.608Z,6.50
2023-12-09T06:59:44.160Z,6.77
2023-12-09T07:02:10.719Z,6.57
2023-12-09T07:04:37.583Z,6.07
2023-12-09T07:07:04.355Z,6.37
2023-12-09T07:09:31.460Z,6.67
2023-12-09T07:12:02.049Z,6.43
2023-12-09T07:14:29.551Z,6.23
2023-12-09T07:16:56.315Z,6.30
2023-12-09T07:19:26.007Z,6.30
2023-12-09T07:21:53.864Z,6.53
2023-12-09T07:24:28.692Z,6.47
2023-12-09T07:29:36.452Z,7.57
2023-12-09T07:32:03.995Z,6.93
2023-12-09T07:34:30.735Z,6.87
2023-12-09T07:36:57.417Z,6.97
2023-12-09T07:39:24.565Z,6.30
2023-12-09T07:41:52.267Z,5.83
2023-12-09T07:44:20.543Z,5.77
2023-12-09T07:46:51.963Z,5.63
2023-12-09T07:49:18.573Z,6.00
2023-12-09T07:51:45.127Z,6.37
2023-12-09T07:54:11.825Z,6.07
2023-12-09T07:56:38.467Z,5.87
2023-12-09T07:59:05.103Z,6.20
2023-12-09T08:01:31.686Z,5.87
2023-12-09T08:03:58.450Z,6.20
2023-12-09T08:06:25.131Z,5.87
2023-12-09T08:08:52.316Z,5.10
2023-12-09T08:11:22.157Z,5.13
2023-12-09T08:13:48.687Z,5.00
2023-12-09T08:16:15.854Z,4.70
2023-12-09T08:18:44.252Z,4.80
2023-12-09T08:21:11.461Z,4.63
2023-12-09T08:23:39.495Z,4.63
2023-12-09T08:26:06.397Z,4.73
2023-12-09T08:28:32.939Z,5.20
2023-12-09T08:30:59.791Z,4.60
2023-12-09T08:33:26.622Z,4.70
2023-12-09T08:35:53.218Z,4.73
2023-12-09T08:38:19.753Z,4.10
2023-12-09T08:40:46.307Z,3.83
2023-12-09T08:43:12.860Z,4.50
2023-12-09T08:45:39.426Z,3.50
2023-12-09T08:48:06.075Z,3.57
2023-12-09T08:50:32.646Z,3.20
2023-12-09T08:52:59.188Z,3.20
2023-12-09T08:55:25.677Z,3.60
2023-12-09T08:57:53.382Z,3.30
2023-12-09T09:00:22.118Z,2.80
2023-12-09T09:02:49.321Z,3.37
2023-12-09T09:05:16.111Z,3.10
2023-12-09T09:07:46.197Z,2.97
2023-12-09T09:10:12.832Z,3.73
2023-12-09T09:12:39.385Z,4.23
2023-12-09T09:15:08.356Z,3.47
2023-12-09T09:17:38.473Z,4.00
2023-12-09T09:20:06.623Z,2.90
2023-12-09T09:22:33.695Z,3.93
2023-12-09T09:25:00.407Z,3.13
2023-12-09T09:27:27.136Z,2.93
2023-12-09T09:29:54.336Z,2.60
2023-12-09T09:32:22.273Z,3.07
2023-12-09T09:34:49.207Z,2.67
2023-12-09T09:37:15.994Z,2.33
2023-12-09T09:39:42.584Z,2.83
2023-12-09T09:42:28.077Z,2.57
2023-12-09T09:45:12.940Z,2.47
2023-12-09T09:47:44.229Z,2.20
2023-12-09T09:50:11.808Z,2.53
2023-12-09T09:52:42.017Z,2.47
2023-12-09T09:55:09.350Z,3.53
2023-12-09T09:57:35.915Z,2.17
2023-12-09T10:00:03.089Z,2.67
2023-12-09T10:02:37.589Z,2.33
2023-12-09T10:05:04.557Z,2.20
2023-12-09T10:07:31.843Z,2.47
2023-12-09T10:09:59.050Z,2.37
2023-12-09T10:12:27.843Z,2.40
2023-12-09T10:14:54.643Z,2.70
2023-12-09T10:17:21.506Z,2.90
2023-12-09T10:19:48.256Z,2.93
2023-12-09T10:22:15.196Z,2.37
2023-12-09T10:24:50.582Z,2.83
2023-12-09T10:27:20.217Z,2.27
2023-12-09T10:29:47.875Z,2.03
2023-12-09T10:32:14.968Z,2.43
2023-12-09T10:34:42.113Z,2.73
2023-12-09T10:37:09.784Z,2.23
2023-12-09T10:39:36.762Z,2.40
2023-12-09T10:42:06.743Z,2.17
2023-12-09T10:44:33.379Z,2.30
2023-12-09T10:46:59.871Z,2.07
2023-12-09T10:49:26.541Z,1.77
2023-12-09T10:51:53.245Z,1.60
2023-12-09T10:54:20.009Z,1.60
2023-12-09T10:56:46.950Z,1.50
2023-12-09T10:59:15.095Z,1.83
2023-12-09T11:01:42.265Z,1.50
2023-12-09T11:04:10.310Z,1.47
2023-12-09T11:06:38.938Z,1.43
2023-12-09T11:09:07.375Z,1.60
2023-12-09T11:11:33.940Z,1.60
2023-12-09T11:14:00.481Z,1.30
2023-12-09T11:16:30.119Z,1.30
2023-12-09T11:18:59.581Z,1.30
2023-12-09T11:21:30.123Z,1.37
2023-12-09T11:23:58.427Z,1.40
2023-12-09T11:26:27.909Z,1.40
2023-12-09T11:29:06.180Z,1.50
2023-12-09T11:31:39.816Z,1.77
2023-12-09T11:34:11.405Z,1.50
2023-12-09T11:36:39.790Z,1.60
2023-12-09T11:39:12.694Z,1.80
2023-12-09T11:41:41.539Z,1.87
2023-12-09T11:44:09.929Z,1.50
2023-12-09T11:46:37.281Z,1.10
2023-12-09T11:49:05.701Z,1.40
2023-12-09T11:51:35.572Z,1.60
2023-12-09T11:54:04.840Z,1.33
2023-12-09T11:56:32.370Z,1.23
2023-12-09T11:58:59.546Z,1.20
2023-12-09T12:01:27.486Z,1.53
2023-12-09T12:03:54.204Z,1.70
2023-12-09T12:06:23.510Z,1.30
2023-12-09T12:08:55.072Z,1.83
2023-12-09T12:11:23.672Z,1.20
2023-12-09T12:13:51.045Z,1.40
2023-12-09T12:16:17.934Z,1.40
2023-12-09T12:18:45.502Z,1.60
2023-12-09T12:21:12.388Z,1.43
2023-12-09T12:23:40.519Z,1.37
2023-12-09T12:26:07.431Z,1.80
2023-12-09T12:28:33.975Z,1.60
2023-12-09T12:31:01.133Z,1.30
2023-12-09T12:33:33.966Z,1.57
2023-12-09T12:36:02.042Z,1.80
2023-12-09T12:38:29.155Z,1.47
2023-12-09T12:40:58.121Z,1.77
2023-12-09T12:43:29.417Z,1.70
2023-12-09T12:45:59.154Z,1.60
2023-12-09T12:48:26.166Z,1.63
2023-12-09T12:50:53.814Z,1.90
2023-12-09T12:53:21.487Z,1.40
2023-12-09T12:55:48.146Z,2.17
2023-12-09T12:58:14.639Z,1.60
2023-12-09T13:00:41.362Z,1.80
2023-12-09T13:03:08.621Z,1.40
2023-12-09T13:05:35.905Z,1.90
2023-12-09T13:08:02.731Z,1.90
2023-12-09T13:10:29.345Z,1.60
2023-12-09T13:12:56.071Z,1.90
2023-12-09T13:15:22.870Z,1.83
2023-12-09T13:17:49.658Z,2.20
2023-12-09T13:20:16.483Z,1.93
2023-12-09T13:22:43.164Z,2.20
2023-12-09T13:25:10.783Z,2.40
2023-12-09T13:27:38.528Z,2.27
2023-12-09T13:30:08.288Z,2.03
2023-12-09T13:32:36.078Z,2.10
2023-12-09T13:35:04.365Z,2.47
2023-12-09T13:37:31.326Z,2.10
2023-12-09T13:39:58.133Z,2.33
2023-12-09T13:42:25.004Z,1.97
2023-12-09T13:44:52.677Z,2.13
2023-12-09T13:47:20.782Z,2.37
2023-12-09T13:49:48.022Z,2.40
2023-12-09T13:52:16.749Z,2.97
2023-12-09T13:54:44.066Z,2.50
2023-12-09T13:57:11.033Z,2.40
2023-12-09T13:59:37.675Z,3.17
2023-12-09T14:02:04.453Z,3.40
2023-12-09T14:04:31.242Z,3.00
2023-12-09T14:06:57.874Z,2.47
2023-12-09T14:09:24.387Z,2.70
2023-12-09T14:11:50.911Z,3.13
2023-12-09T14:14:17.433Z,3.43
2023-12-09T14:16:44.028Z,3.17
2023-12-09T14:19:11.674Z,3.20
2023-12-09T14:21:39.301Z,3.10
2023-12-09T14:24:06.572Z,3.20
2023-12-09T14:26:35.388Z,3.40
2023-12-09T14:29:02.603Z,4.07
2023-12-09T14:31:29.175Z,3.60
2023-12-09T14:33:55.974Z,3.43
2023-12-09T14:36:22.992Z,3.53
2023-12-09T14:38:49.930Z,2.80
2023-12-09T14:41:16.711Z,2.50
2023-12-09T14:43:44.596Z,3.03
2023-12-09T14:46:13.242Z,5.00
2023-12-09T14:48:40.132Z,3.47
2023-12-09T14:51:07.785Z,3.00
2023-12-09T14:53:34.467Z,5.37
2023-12-09T14:56:01.871Z,2.90
2023-12-09T14:58:28.593Z,4.27
2023-12-09T15:00:55.463Z,4.43
2023-12-09T15:03:22.190Z,2.77
2023-12-09T15:05:49.086Z,2.50
2023-12-09T15:08:15.583Z,2.50
2023-12-09T15:10:42.202Z,2.93
2023-12-09T15:13:09.015Z,2.50
2023-12-09T15:15:35.560Z,2.67
2023-12-09T15:18:02.346Z,2.70
2023-12-09T15:20:29.036Z,2.00
2023-12-09T15:22:55.595Z,1.60
2023-12-09T15:25:22.091Z,1.63
2023-12-09T15:27:48.692Z,1.70
2023-12-09T15:30:15.561Z,2.00
2023-12-09T15:32:43.938Z,2.57
2023-12-09T15:35:11.107Z,1.70
2023-12-09T15:37:38.381Z,2.30
2023-12-09T15:40:09.848Z,1.80
2023-12-09T15:42:39.438Z,1.93
2023-12-09T15:45:06.676Z,1.90
2023-12-09T15:47:33.576Z,2.33
2023-12-09T15:50:00.404Z,2.63
2023-12-09T15:52:27.306Z,3.30
2023-12-09T15:54:54.153Z,2.83
2023-12-09T15:57:20.699Z,2.10
2023-12-09T15:59:54.207Z,2.87
2023-12-09T16:02:21.857Z,2.47
2023-12-09T16:04:48.796Z,3.37
2023-12-09T16:07:15.677Z,3.13
2023-12-09T16:09:47.946Z,2.30
2023-12-09T16:12:19.202Z,2.40
2023-12-09T16:14:52.446Z,1.97
2023-12-09T16:17:19.500Z,2.57
2023-12-09T16:19:46.772Z,2.30
2023-12-09T16:22:13.802Z,2.37
2023-12-09T16:24:40.374Z,2.70
2023-12-09T16:27:06.910Z,4.43
2023-12-09T16:29:33.408Z,2.40
2023-12-09T16:31:59.940Z,2.73
2023-12-09T16:34:26.615Z,5.03
2023-12-09T16:36:53.231Z,8.13
2023-12-09T16:39:19.879Z,2.63
2023-12-09T16:41:46.378Z,2.77
2023-12-09T16:44:12.879Z,2.43
2023-12-09T16:46:40.326Z,6.57
2023-12-09T16:49:09.104Z,2.20
2023-12-09T16:51:36.049Z,1.97
2023-12-09T16:54:02.805Z,1.83
2023-12-09T16:56:29.665Z,2.33
2023-12-09T16:58:57.611Z,3.30
2023-12-09T17:01:24.278Z,1.70
2023-12-09T17:03:50.896Z,5.50
2023-12-09T17:06:17.576Z,2.70
2023-12-09T17:08:44.179Z,2.40
2023-12-09T17:11:10.810Z,1.47
2023-12-09T17:13:37.372Z,1.17
2023-12-09T17:16:04.101Z,1.07
2023-12-09T17:18:30.830Z,1.10
2023-12-09T17:20:58.711Z,1.40
2023-12-09T17:23:25.441Z,1.70
2023-12-09T17:25:52.417Z,1.43
2023-12-09T17:28:19.883Z,1.57
2023-12-09T17:30:46.610Z,1.37
2023-12-09T17:33:13.320Z,1.83
2023-12-09T17:35:39.850Z,1.57
2023-12-09T17:38:06.353Z,1.30
2023-12-09T17:40:32.938Z,1.00
2023-12-09T17:42:59.475Z,1.17
2023-12-09T17:45:26.159Z,2.10
2023-12-09T17:47:52.878Z,1.43
2023-12-09T17:50:19.512Z,1.10
2023-12-09T17:52:46.018Z,1.10
2023-12-09T17:55:14.028Z,1.10
2023-12-09T17:57:41.172Z,1.60
2023-12-09T18:00:08.950Z,1.53
2023-12-09T18:02:35.517Z,1.20
2023-12-09T18:05:02.161Z,1.10
2023-12-09T18:07:29.296Z,1.80
2023-12-09T18:09:55.924Z,1.73
2023-12-09T18:12:22.459Z,1.60
2023-12-09T18:14:49.056Z,2.03
2023-12-09T18:17:15.717Z,2.20
2023-12-09T18:19:43.407Z,2.33
2023-12-09T18:22:10.058Z,3.47
2023-12-09T18:24:36.778Z,2.67
2023-12-09T18:27:03.744Z,1.43
2023-12-09T18:29:30.561Z,1.50
2023-12-09T18:31:57.054Z,1.40
2023-12-09T18:34:23.689Z,1.40
2023-12-09T18:36:50.609Z,1.10
2023-12-09T18:39:20.650Z,1.00
2023-12-09T18:41:47.374Z,1.00
2023-12-09T18:44:13.913Z,1.10
2023-12-09T18:46:40.479Z,1.23
2023-12-09T18:49:09.209Z,1.47
2023-12-09T18:51:35.804Z,1.50
2023-12-09T18:54:02.633Z,1.70
2023-12-09T18:56:29.243Z,1.23
2023-12-09T18:58:55.745Z,1.00
2023-12-09T19:01:23.186Z,1.33
2023-12-09T19:03:49.929Z,0.97
2023-12-09T19:06:16.550Z,0.90
2023-12-09T19:08:43.640Z,0.90
2023-12-09T19:11:10.185Z,0.90
2023-12-09T19:13:36.767Z,0.70
2023-12-09T19:16:04.000Z,0.80
2023-12-09T19:18:30.671Z,1.00
2023-12-09T19:20:57.308Z,1.00
2023-12-09T19:23:23.787Z,0.90
2023-12-09T19:25:50.429Z,0.90
2023-12-09T19:28:17.073Z,0.97
2023-12-09T19:30:43.723Z,0.60
2023-12-09T19:33:10.411Z,0.70
2023-12-09T19:35:37.210Z,0.60
2023-12-09T19:38:04.274Z,0.50
2023-12-09T19:40:31.275Z,0.50
2023-12-09T19:42:58.081Z,1.23
2023-12-09T19:45:27.776Z,1.30
2023-12-09T19:47:57.487Z,1.40
2023-12-09T19:50:25.091Z,1.40
2023-12-09T19:52:52.226Z,0.80
2023-12-09T19:55:18.869Z,0.80
2023-12-09T19:57:45.681Z,0.93
2023-12-09T20:00:15.844Z,1.00
2023-12-09T20:02:45.249Z,1.13
2023-12-09T20:05:12.054Z,1.20
2023-12-09T20:07:38.685Z,1.20
2023-12-09T20:10:05.797Z,1.40
2023-12-09T20:12:32.438Z,2.00
2023-12-09T20:14:59.202Z,1.40
2023-12-09T20:17:25.809Z,1.43
2023-12-09T20:19:52.430Z,1.10
2023-12-09T20:22:21.166Z,1.90
2023-12-09T20:24:47.951Z,1.50
2023-12-09T20:27:14.741Z,1.13
2023-12-09T20:29:41.383Z,1.70
2023-12-09T20:32:07.943Z,1.40
2023-12-09T20:34:34.577Z,1.27
2023-12-09T20:37:02.268Z,0.90
2023-12-09T20:39:28.811Z,1.07
2023-12-09T20:41:55.319Z,1.50
2023-12-09T20:44:21.785Z,0.90
2023-12-09T20:46:48.318Z,1.00
2023-12-09T20:49:18.080Z,1.30
2023-12-09T20:51:45.893Z,2.57
2023-12-09T20:54:12.859Z,1.30
2023-12-09T20:56:39.713Z,1.70
2023-12-09T20:59:09.132Z,1.40
2023-12-09T21:01:44.892Z,1.60
2023-12-09T21:04:12.031Z,1.83
2023-12-09T21:06:38.647Z,2.80
2023-12-09T21:09:05.733Z,2.13
2023-12-09T21:11:35.638Z,1.97
2023-12-09T21:14:02.389Z,1.90
2023-12-09T21:16:28.884Z,2.43
2023-12-09T21:18:56.135Z,2.30
2023-12-09T21:21:23.019Z,2.63
2023-12-09T21:23:50.230Z,2.33
2023-12-09T21:26:16.852Z,2.10
2023-12-09T21:28:43.493Z,2.60
2023-12-09T21:31:13.561Z,2.00
2023-12-09T21:33:41.003Z,2.10
2023-12-09T21:36:12.850Z,2.00
2023-12-09T21:38:40.510Z,2.03
2023-12-09T21:41:07.118Z,1.67
2023-12-09T21:43:36.132Z,1.87
2023-12-09T21:46:02.842Z,1.93
2023-12-09T21:48:29.683Z,2.10
2023-12-09T21:50:56.411Z,1.87
2023-12-09T21:53:33.604Z,2.23
2023-12-09T21:56:00.324Z,2.37
2023-12-09T21:58:36.222Z,2.17
2023-12-09T22:01:02.824Z,2.03
2023-12-09T22:03:29.545Z,2.10
2023-12-09T22:05:56.103Z,1.93
2023-12-09T22:08:22.623Z,2.30
2023-12-09T22:10:57.506Z,3.17
2023-12-09T22:16:18.948Z,3.20
2023-12-09T22:18:45.627Z,2.77
2023-12-09T22:21:12.395Z,2.83
2023-12-09T22:23:39.064Z,2.37
2023-12-09T22:26:05.780Z,3.60
2023-12-09T22:28:33.080Z,3.20
2023-12-09T22:31:03.560Z,3.17
2023-12-09T22:33:30.170Z,3.20
2023-12-09T22:35:56.775Z,3.00
2023-12-09T22:38:23.321Z,3.50
2023-12-09T22:40:50.056Z,3.70
2023-12-09T22:43:16.612Z,3.57
2023-12-09T22:45:43.152Z,3.60
2023-12-09T22:48:10.056Z,3.53
2023-12-09T22:50:36.642Z,3.50
2023-12-09T22:53:03.791Z,3.70
2023-12-09T22:55:30.327Z,3.10
2023-12-09T22:57:56.942Z,3.23
2023-12-09T23:00:33.484Z,4.17
2023-12-09T23:03:03.051Z,3.70
2023-12-09T23:05:29.691Z,3.67
2023-12-09T23:07:56.243Z,4.30
2023-12-09T23:10:22.805Z,4.10
2023-12-09T23:12:49.606Z,4.30
2023-12-09T23:15:16.281Z,4.30
2023-12-09T23:17:42.979Z,3.43
2023-12-09T23:20:10.160Z,3.93
2023-12-09T23:22:36.689Z,4.43
2023-12-09T23:25:03.553Z,4.30
2023-12-09T23:27:30.294Z,3.53
2023-12-09T23:29:56.794Z,4.17
2023-12-09T23:32:23.561Z,4.07
2023-12-09T23:34:50.159Z,3.90
2023-12-09T23:37:16.789Z,4.47
2023-12-09T23:39:44.404Z,4.10
2023-12-09T23:42:11.023Z,4.03
2023-12-09T23:44:37.564Z,3.87
2023-12-09T23:47:04.308Z,4.30
2023-12-09T23:49:30.812Z,4.03
2023-12-09T23:51:57.325Z,4.30
2023-12-09T23:54:23.997Z,4.00
2023-12-09T23:56:50.507Z,4.73
2023-12-09T23:59:16.980Z,4.40
